Lantana, FL

1:38 PM EDT on July 24, 2016 (GMT -0400)
Island Estates | | Change Station

Elev 45 ft 26.57 °N, 80.08 °W | Updated 3 minutes ago

Overcast
Overcast
81.7 °F
Feels Like 87 °F
N
3.0
Wind Variable Wind from South
Gusts 3.0 mph

Today
High -- | Low -- °F
--% Chance of Precip.
Yesterday
High -- | Low -- °F
Precip. -- in
Pressure 30.09 in
Visibility 7.0 miles
Clouds Scattered Clouds 3100 ft
Scattered Clouds 6500 ft
Mostly Cloudy 15000 ft
Mostly Cloudy 20000 ft
Heat Index 87 °F
Dew Point 73 °F
Humidity 75%
Rainfall 0.00 in
Snow Depth Not available.
6:41 AM 8:11 PM
Waning Gibbous, 74% visible
METAR KPBI 241653Z 17012KT 7SM TS SCT031CB SCT065 BKN150 BKN200 29/23 A3009 RMK AO2 TSB17 SLP187 FRQ LTGICCCCG W-NW TS W-NW MOV NW CB DSNT E-SW T02890228
Pressure 30.09 in
Visibility 7.0 miles
Clouds Scattered Clouds 3100 ft
Scattered Clouds 6500 ft
Mostly Cloudy 15000 ft
Mostly Cloudy 20000 ft
Heat Index 87 °F
Dew Point 73 °F
Humidity 75%
Rainfall 0.00 in
Snow Depth Not available.
6:41 AM 8:11 PM
Waning Gibbous, 74% visible
METAR KPBI 241653Z 17012KT 7SM TS SCT031CB SCT065 BKN150 BKN200 29/23 A3009 RMK AO2 TSB17 SLP187 FRQ LTGICCCCG W-NW TS W-NW MOV NW CB DSNT E-SW T02890228

10-Day Weather Forecast

Almanac

Astronomy

Jul. 24, 2016 Rise Set
Actual Time
Civil Twilight
Nautical Twilight
Astronomical Twilight
Moon
Length of Visible Light
Length of Day
Tomorrow will be .
, % of the Moon is Illuminated

Today's Extremes

State Highs State Lows

Community

WunderPhotos

Upload Photos

1,927,132 photos uploaded!

WunderBlog® & News

Nearby

Air Quality

  Air Quality AQ Index Pollutant
Not available.

Snow Depth

Station Depth Elevation

Earthquake Activity

City Distance Mag. Time & Date
Minimum magnitude displayed is 2.5.

Coastal Water Temperatures

Place Temperature

Stations

Nearby Weather Stations

Station Location Temp. Windchill Dew Point Humidity Wind Precip. Elev Updated Type
                   

Watches & Warnings

There are currently no watches in effect.